sensor_id;sensor_type;location;lat;lon;timestamp;temperature;humidity
20759;DHT22;10539;53.686;9.158;2023-03-23T00:01:04;11.90;99.90
20759;DHT22;10539;53.686;9.158;2023-03-23T00:03:30;11.90;99.90
20759;DHT22;10539;53.686;9.158;2023-03-23T00:06:00;12.00;99.90
20759;DHT22;10539;53.686;9.158;2023-03-23T00:08:38;12.00;99.90
20759;DHT22;10539;53.686;9.158;2023-03-23T00:11:15;12.00;99.90
20759;DHT22;10539;53.686;9.158;2023-03-23T00:13:42;12.00;99.90
20759;DHT22;10539;53.686;9.158;2023-03-23T00:16:10;12.00;99.90
20759;DHT22;10539;53.686;9.158;2023-03-23T00:18:50;12.00;99.90
20759;DHT22;10539;53.686;9.158;2023-03-23T00:21:20;12.00;99.90
20759;DHT22;10539;53.686;9.158;2023-03-23T00:23:46;12.00;99.90
20759;DHT22;10539;53.686;9.158;2023-03-23T00:26:12;12.00;99.90
20759;DHT22;10539;53.686;9.158;2023-03-23T00:28:38;12.00;99.90
20759;DHT22;10539;53.686;9.158;2023-03-23T00:31:07;12.00;99.90
20759;DHT22;10539;53.686;9.158;2023-03-23T00:33:35;12.00;99.90
20759;DHT22;10539;53.686;9.158;2023-03-23T00:36:04;11.90;99.90
20759;DHT22;10539;53.686;9.158;2023-03-23T00:38:31;11.90;99.90
20759;DHT22;10539;53.686;9.158;2023-03-23T00:40:57;11.90;99.90
20759;DHT22;10539;53.686;9.158;2023-03-23T00:43:28;11.90;99.90
20759;DHT22;10539;53.686;9.158;2023-03-23T00:45:58;12.00;99.90
20759;DHT22;10539;53.686;9.158;2023-03-23T00:48:29;12.00;99.90
20759;DHT22;10539;53.686;9.158;2023-03-23T00:50:55;12.00;99.90
20759;DHT22;10539;53.686;9.158;2023-03-23T00:53:24;12.00;99.90
20759;DHT22;10539;53.686;9.158;2023-03-23T00:55:50;12.00;99.90
20759;DHT22;10539;53.686;9.158;2023-03-23T00:58:16;11.90;99.90
20759;DHT22;10539;53.686;9.158;2023-03-23T01:00:42;12.00;99.90
20759;DHT22;10539;53.686;9.158;2023-03-23T01:03:09;12.00;99.90
20759;DHT22;10539;53.686;9.158;2023-03-23T01:05:44;12.00;99.90
20759;DHT22;10539;53.686;9.158;2023-03-23T01:08:13;12.00;99.90
20759;DHT22;10539;53.686;9.158;2023-03-23T01:10:39;12.00;99.90
20759;DHT22;10539;53.686;9.158;2023-03-23T01:13:07;12.00;99.90
20759;DHT22;10539;53.686;9.158;2023-03-23T01:15:33;12.00;99.90
20759;DHT22;10539;53.686;9.158;2023-03-23T01:17:59;12.00;99.90
20759;DHT22;10539;53.686;9.158;2023-03-23T01:20:25;12.00;99.90
20759;DHT22;10539;53.686;9.158;2023-03-23T01:23:02;12.00;99.90
20759;DHT22;10539;53.686;9.158;2023-03-23T01:25:30;12.00;99.90
20759;DHT22;10539;53.686;9.158;2023-03-23T01:27:57;12.00;99.90
20759;DHT22;10539;53.686;9.158;2023-03-23T01:30:24;12.00;99.90
20759;DHT22;10539;53.686;9.158;2023-03-23T01:32:50;12.00;99.90
20759;DHT22;10539;53.686;9.158;2023-03-23T01:35:17;12.00;99.90
20759;DHT22;10539;53.686;9.158;2023-03-23T01:37:44;12.00;99.90
20759;DHT22;10539;53.686;9.158;2023-03-23T01:40:10;12.00;99.90
20759;DHT22;10539;53.686;9.158;2023-03-23T01:42:37;12.00;99.90
20759;DHT22;10539;53.686;9.158;2023-03-23T01:45:27;11.90;99.90
20759;DHT22;10539;53.686;9.158;2023-03-23T01:48:01;12.00;99.90
20759;DHT22;10539;53.686;9.158;2023-03-23T01:50:28;12.00;99.90
20759;DHT22;10539;53.686;9.158;2023-03-23T01:52:57;11.90;99.90
20759;DHT22;10539;53.686;9.158;2023-03-23T01:55:24;11.80;99.90
20759;DHT22;10539;53.686;9.158;2023-03-23T01:57:52;11.70;99.90
20759;DHT22;10539;53.686;9.158;2023-03-23T02:00:19;11.80;99.90
20759;DHT22;10539;53.686;9.158;2023-03-23T02:02:48;11.80;99.90
20759;DHT22;10539;53.686;9.158;2023-03-23T02:05:21;11.80;99.90
20759;DHT22;10539;53.686;9.158;2023-03-23T02:07:49;11.80;99.90
20759;DHT22;10539;53.686;9.158;2023-03-23T02:10:16;11.70;99.90
20759;DHT22;10539;53.686;9.158;2023-03-23T02:12:42;11.70;99.90
20759;DHT22;10539;53.686;9.158;2023-03-23T02:15:08;11.70;99.90
20759;DHT22;10539;53.686;9.158;2023-03-23T02:17:49;11.70;99.90
20759;DHT22;10539;53.686;9.158;2023-03-23T02:26:03;11.80;99.90
20759;DHT22;10539;53.686;9.158;2023-03-23T02:28:46;11.80;99.90
20759;DHT22;10539;53.686;9.158;2023-03-23T02:34:27;11.80;99.90
20759;DHT22;10539;53.686;9.158;2023-03-23T02:37:06;11.80;99.90
20759;DHT22;10539;53.686;9.158;2023-03-23T02:39:37;11.80;99.90
20759;DHT22;10539;53.686;9.158;2023-03-23T02:42:07;11.80;99.90
20759;DHT22;10539;53.686;9.158;2023-03-23T02:44:36;11.80;99.90
20759;DHT22;10539;53.686;9.158;2023-03-23T02:47:06;11.90;99.90
20759;DHT22;10539;53.686;9.158;2023-03-23T02:49:35;11.90;99.90
20759;DHT22;10539;53.686;9.158;2023-03-23T02:52:08;12.00;99.90
20759;DHT22;10539;53.686;9.158;2023-03-23T02:54:35;12.00;99.90
20759;DHT22;10539;53.686;9.158;2023-03-23T02:57:01;12.00;99.90
20759;DHT22;10539;53.686;9.158;2023-03-23T02:59:28;12.00;99.90
20759;DHT22;10539;53.686;9.158;2023-03-23T03:02:16;12.10;99.90
20759;DHT22;10539;53.686;9.158;2023-03-23T03:10:14;12.10;99.90
20759;DHT22;10539;53.686;9.158;2023-03-23T03:12:46;12.20;99.90
20759;DHT22;10539;53.686;9.158;2023-03-23T03:15:33;12.20;99.90
20759;DHT22;10539;53.686;9.158;2023-03-23T03:18:19;12.20;99.90
20759;DHT22;10539;53.686;9.158;2023-03-23T03:20:54;12.20;99.90
20759;DHT22;10539;53.686;9.158;2023-03-23T03:23:25;12.20;99.90
20759;DHT22;10539;53.686;9.158;2023-03-23T03:25:53;12.20;99.90
20759;DHT22;10539;53.686;9.158;2023-03-23T03:28:24;12.20;99.90
20759;DHT22;10539;53.686;9.158;2023-03-23T03:30:57;12.20;99.90
20759;DHT22;10539;53.686;9.158;2023-03-23T03:33:26;12.20;99.90
20759;DHT22;10539;53.686;9.158;2023-03-23T03:35:54;12.30;99.90
20759;DHT22;10539;53.686;9.158;2023-03-23T03:38:21;12.30;99.90
20759;DHT22;10539;53.686;9.158;2023-03-23T03:40:47;12.20;99.90
20759;DHT22;10539;53.686;9.158;2023-03-23T03:43:13;12.30;99.90
20759;DHT22;10539;53.686;9.158;2023-03-23T03:45:38;12.30;99.90
20759;DHT22;10539;53.686;9.158;2023-03-23T03:48:05;12.30;99.90
20759;DHT22;10539;53.686;9.158;2023-03-23T03:50:31;12.30;99.90
20759;DHT22;10539;53.686;9.158;2023-03-23T03:52:57;12.30;99.90
20759;DHT22;10539;53.686;9.158;2023-03-23T03:55:23;12.40;99.90
20759;DHT22;10539;53.686;9.158;2023-03-23T03:57:49;12.40;99.90
20759;DHT22;10539;53.686;9.158;2023-03-23T04:00:16;12.30;99.90
20759;DHT22;10539;53.686;9.158;2023-03-23T04:02:44;12.30;99.90
20759;DHT22;10539;53.686;9.158;2023-03-23T04:05:13;12.40;99.90
20759;DHT22;10539;53.686;9.158;2023-03-23T04:07:39;12.40;99.90
20759;DHT22;10539;53.686;9.158;2023-03-23T04:10:08;12.40;99.90
20759;DHT22;10539;53.686;9.158;2023-03-23T04:12:35;12.40;99.90
20759;DHT22;10539;53.686;9.158;2023-03-23T04:15:03;12.40;99.90
20759;DHT22;10539;53.686;9.158;2023-03-23T04:17:33;12.30;99.90
20759;DHT22;10539;53.686;9.158;2023-03-23T04:19:58;12.30;99.90
20759;DHT22;10539;53.686;9.158;2023-03-23T04:22:32;12.30;99.90
20759;DHT22;10539;53.686;9.158;2023-03-23T04:24:59;12.30;99.90
20759;DHT22;10539;53.686;9.158;2023-03-23T04:27:27;12.30;99.90
20759;DHT22;10539;53.686;9.158;2023-03-23T04:29:55;12.20;99.90
20759;DHT22;10539;53.686;9.158;2023-03-23T04:32:22;12.20;99.90
20759;DHT22;10539;53.686;9.158;2023-03-23T04:34:47;12.20;99.90
20759;DHT22;10539;53.686;9.158;2023-03-23T04:37:14;12.20;99.90
20759;DHT22;10539;53.686;9.158;2023-03-23T04:39:39;12.20;99.90
20759;DHT22;10539;53.686;9.158;2023-03-23T04:42:07;12.20;99.90
20759;DHT22;10539;53.686;9.158;2023-03-23T04:44:32;12.20;99.90
20759;DHT22;10539;53.686;9.158;2023-03-23T04:47:00;12.20;99.90
20759;DHT22;10539;53.686;9.158;2023-03-23T04:49:26;12.20;99.90
20759;DHT22;10539;53.686;9.158;2023-03-23T04:51:52;12.20;99.90
20759;DHT22;10539;53.686;9.158;2023-03-23T04:54:18;12.20;99.90
20759;DHT22;10539;53.686;9.158;2023-03-23T04:56:44;12.10;99.90
20759;DHT22;10539;53.686;9.158;2023-03-23T04:59:10;12.10;99.90
20759;DHT22;10539;53.686;9.158;2023-03-23T05:01:36;12.10;99.90
20759;DHT22;10539;53.686;9.158;2023-03-23T05:04:04;12.10;99.90
20759;DHT22;10539;53.686;9.158;2023-03-23T05:06:29;12.10;99.90
20759;DHT22;10539;53.686;9.158;2023-03-23T05:08:55;12.10;99.90
20759;DHT22;10539;53.686;9.158;2023-03-23T05:11:21;12.00;99.90
20759;DHT22;10539;53.686;9.158;2023-03-23T05:13:47;12.00;99.90
20759;DHT22;10539;53.686;9.158;2023-03-23T05:16:13;12.00;99.90
20759;DHT22;10539;53.686;9.158;2023-03-23T05:18:39;12.00;99.90
20759;DHT22;10539;53.686;9.158;2023-03-23T05:21:05;12.00;99.90
20759;DHT22;10539;53.686;9.158;2023-03-23T05:23:30;12.00;99.90
20759;DHT22;10539;53.686;9.158;2023-03-23T05:25:59;12.00;99.90
20759;DHT22;10539;53.686;9.158;2023-03-23T05:28:28;11.90;99.90
20759;DHT22;10539;53.686;9.158;2023-03-23T05:30:56;11.90;99.90
20759;DHT22;10539;53.686;9.158;2023-03-23T05:33:22;11.90;99.90
20759;DHT22;10539;53.686;9.158;2023-03-23T05:35:48;11.90;99.90
20759;DHT22;10539;53.686;9.158;2023-03-23T05:38:15;11.90;99.90
20759;DHT22;10539;53.686;9.158;2023-03-23T05:40:41;11.90;99.90
20759;DHT22;10539;53.686;9.158;2023-03-23T05:43:08;11.90;99.90
20759;DHT22;10539;53.686;9.158;2023-03-23T05:45:34;11.90;99.90
20759;DHT22;10539;53.686;9.158;2023-03-23T05:48:01;11.90;99.90
20759;DHT22;10539;53.686;9.158;2023-03-23T05:50:27;12.00;99.90
20759;DHT22;10539;53.686;9.158;2023-03-23T05:52:54;12.00;99.90
20759;DHT22;10539;53.686;9.158;2023-03-23T05:55:20;12.00;99.90
20759;DHT22;10539;53.686;9.158;2023-03-23T05:57:46;12.10;99.90
20759;DHT22;10539;53.686;9.158;2023-03-23T06:00:12;12.10;99.90
20759;DHT22;10539;53.686;9.158;2023-03-23T06:02:46;12.10;99.90
20759;DHT22;10539;53.686;9.158;2023-03-23T06:05:12;12.20;99.90
20759;DHT22;10539;53.686;9.158;2023-03-23T06:07:39;12.20;99.90
20759;DHT22;10539;53.686;9.158;2023-03-23T06:10:05;12.20;99.90
20759;DHT22;10539;53.686;9.158;2023-03-23T06:12:32;12.30;99.90
20759;DHT22;10539;53.686;9.158;2023-03-23T06:14:58;12.40;99.90
20759;DHT22;10539;53.686;9.158;2023-03-23T06:17:24;12.40;99.90
20759;DHT22;10539;53.686;9.158;2023-03-23T06:19:50;12.40;99.90
20759;DHT22;10539;53.686;9.158;2023-03-23T06:22:17;12.40;99.90
20759;DHT22;10539;53.686;9.158;2023-03-23T06:24:44;12.50;99.90
20759;DHT22;10539;53.686;9.158;2023-03-23T06:27:10;12.50;99.90
20759;DHT22;10539;53.686;9.158;2023-03-23T06:29:36;12.60;99.90
20759;DHT22;10539;53.686;9.158;2023-03-23T06:32:03;12.60;99.90
20759;DHT22;10539;53.686;9.158;2023-03-23T06:34:30;12.60;99.90
20759;DHT22;10539;53.686;9.158;2023-03-23T06:36:57;12.60;99.90
20759;DHT22;10539;53.686;9.158;2023-03-23T06:39:22;12.60;99.90
20759;DHT22;10539;53.686;9.158;2023-03-23T06:41:49;12.60;99.90
20759;DHT22;10539;53.686;9.158;2023-03-23T06:44:15;12.70;99.90
20759;DHT22;10539;53.686;9.158;2023-03-23T06:46:42;12.70;99.90
20759;DHT22;10539;53.686;9.158;2023-03-23T06:49:08;12.70;99.90
20759;DHT22;10539;53.686;9.158;2023-03-23T06:51:35;12.70;99.90
20759;DHT22;10539;53.686;9.158;2023-03-23T06:54:02;12.80;99.90
20759;DHT22;10539;53.686;9.158;2023-03-23T06:56:28;12.80;99.90
20759;DHT22;10539;53.686;9.158;2023-03-23T06:58:55;12.80;99.90
20759;DHT22;10539;53.686;9.158;2023-03-23T07:01:21;12.40;99.90
20759;DHT22;10539;53.686;9.158;2023-03-23T07:03:47;12.20;99.90
20759;DHT22;10539;53.686;9.158;2023-03-23T07:06:14;12.10;99.90
20759;DHT22;10539;53.686;9.158;2023-03-23T07:08:40;12.00;99.90
20759;DHT22;10539;53.686;9.158;2023-03-23T07:11:06;11.90;99.90
20759;DHT22;10539;53.686;9.158;2023-03-23T07:13:32;11.80;99.90
20759;DHT22;10539;53.686;9.158;2023-03-23T07:15:58;11.80;99.90
20759;DHT22;10539;53.686;9.158;2023-03-23T07:18:25;11.90;99.90
20759;DHT22;10539;53.686;9.158;2023-03-23T07:20:51;12.00;99.90
20759;DHT22;10539;53.686;9.158;2023-03-23T07:23:17;12.00;99.90
20759;DHT22;10539;53.686;9.158;2023-03-23T07:25:44;12.10;99.90
20759;DHT22;10539;53.686;9.158;2023-03-23T07:28:12;12.20;99.90
20759;DHT22;10539;53.686;9.158;2023-03-23T07:30:38;12.20;99.90
20759;DHT22;10539;53.686;9.158;2023-03-23T07:33:05;12.30;99.90
20759;DHT22;10539;53.686;9.158;2023-03-23T07:35:32;12.40;99.90
20759;DHT22;10539;53.686;9.158;2023-03-23T07:37:58;12.40;99.90
20759;DHT22;10539;53.686;9.158;2023-03-23T07:40:24;12.50;99.90
20759;DHT22;10539;53.686;9.158;2023-03-23T07:42:55;12.60;99.90
20759;DHT22;10539;53.686;9.158;2023-03-23T07:45:21;12.70;99.90
20759;DHT22;10539;53.686;9.158;2023-03-23T07:47:47;12.70;99.90
20759;DHT22;10539;53.686;9.158;2023-03-23T07:50:13;12.70;99.90
20759;DHT22;10539;53.686;9.158;2023-03-23T07:52:39;12.70;99.90
20759;DHT22;10539;53.686;9.158;2023-03-23T07:55:08;12.70;99.90
20759;DHT22;10539;53.686;9.158;2023-03-23T07:57:34;12.70;99.90
20759;DHT22;10539;53.686;9.158;2023-03-23T08:00:01;12.70;99.90
20759;DHT22;10539;53.686;9.158;2023-03-23T08:02:29;12.80;99.90
20759;DHT22;10539;53.686;9.158;2023-03-23T08:04:57;12.80;99.90
20759;DHT22;10539;53.686;9.158;2023-03-23T08:07:27;12.80;99.90
20759;DHT22;10539;53.686;9.158;2023-03-23T08:09:53;12.80;99.90
20759;DHT22;10539;53.686;9.158;2023-03-23T08:12:19;12.80;99.90
20759;DHT22;10539;53.686;9.158;2023-03-23T08:14:45;12.90;99.90
20759;DHT22;10539;53.686;9.158;2023-03-23T08:17:11;12.90;99.90
20759;DHT22;10539;53.686;9.158;2023-03-23T08:19:36;12.90;99.90
20759;DHT22;10539;53.686;9.158;2023-03-23T08:22:03;12.90;99.90
20759;DHT22;10539;53.686;9.158;2023-03-23T08:24:30;13.00;99.90
20759;DHT22;10539;53.686;9.158;2023-03-23T08:26:56;13.10;99.90
20759;DHT22;10539;53.686;9.158;2023-03-23T08:29:22;13.20;99.90
20759;DHT22;10539;53.686;9.158;2023-03-23T08:31:48;13.30;99.90
20759;DHT22;10539;53.686;9.158;2023-03-23T08:34:13;13.30;99.90
20759;DHT22;10539;53.686;9.158;2023-03-23T08:36:41;13.30;99.90
20759;DHT22;10539;53.686;9.158;2023-03-23T08:39:10;13.40;99.90
20759;DHT22;10539;53.686;9.158;2023-03-23T08:41:35;13.50;99.90
20759;DHT22;10539;53.686;9.158;2023-03-23T08:44:01;13.50;99.90
20759;DHT22;10539;53.686;9.158;2023-03-23T08:46:27;13.50;99.90
20759;DHT22;10539;53.686;9.158;2023-03-23T08:48:54;13.50;99.90
20759;DHT22;10539;53.686;9.158;2023-03-23T08:51:20;13.50;99.90
20759;DHT22;10539;53.686;9.158;2023-03-23T08:53:46;13.50;99.90
20759;DHT22;10539;53.686;9.158;2023-03-23T08:56:12;13.50;99.90
20759;DHT22;10539;53.686;9.158;2023-03-23T08:58:39;13.50;99.90
20759;DHT22;10539;53.686;9.158;2023-03-23T09:01:06;13.50;99.90
20759;DHT22;10539;53.686;9.158;2023-03-23T09:03:33;13.60;99.90
20759;DHT22;10539;53.686;9.158;2023-03-23T09:06:02;13.70;99.90
20759;DHT22;10539;53.686;9.158;2023-03-23T09:08:28;13.60;99.90
20759;DHT22;10539;53.686;9.158;2023-03-23T09:11:03;13.70;99.90
20759;DHT22;10539;53.686;9.158;2023-03-23T09:13:29;13.70;99.90
20759;DHT22;10539;53.686;9.158;2023-03-23T09:15:55;13.80;99.90
20759;DHT22;10539;53.686;9.158;2023-03-23T09:18:22;13.90;99.90
20759;DHT22;10539;53.686;9.158;2023-03-23T09:20:49;14.00;99.90
20759;DHT22;10539;53.686;9.158;2023-03-23T09:23:15;14.10;99.90
20759;DHT22;10539;53.686;9.158;2023-03-23T09:25:42;14.10;99.90
20759;DHT22;10539;53.686;9.158;2023-03-23T09:28:07;14.10;99.90
20759;DHT22;10539;53.686;9.158;2023-03-23T09:30:34;14.10;99.90
20759;DHT22;10539;53.686;9.158;2023-03-23T09:33:03;14.10;99.90
20759;DHT22;10539;53.686;9.158;2023-03-23T09:35:31;14.10;99.90
20759;DHT22;10539;53.686;9.158;2023-03-23T09:37:57;14.10;99.90
20759;DHT22;10539;53.686;9.158;2023-03-23T09:40:39;14.00;99.90
20759;DHT22;10539;53.686;9.158;2023-03-23T09:43:24;14.00;99.90
20759;DHT22;10539;53.686;9.158;2023-03-23T09:46:59;14.00;99.90
20759;DHT22;10539;53.686;9.158;2023-03-23T09:48:59;13.90;99.90
20759;DHT22;10539;53.686;9.158;2023-03-23T09:51:49;13.90;99.90
20759;DHT22;10539;53.686;9.158;2023-03-23T09:56:45;13.90;99.90
20759;DHT22;10539;53.686;9.158;2023-03-23T09:59:27;13.90;99.90
20759;DHT22;10539;53.686;9.158;2023-03-23T10:02:15;14.00;99.90
20759;DHT22;10539;53.686;9.158;2023-03-23T10:04:49;14.10;99.90
20759;DHT22;10539;53.686;9.158;2023-03-23T10:07:20;14.10;99.90
20759;DHT22;10539;53.686;9.158;2023-03-23T10:09:51;14.10;99.90
20759;DHT22;10539;53.686;9.158;2023-03-23T10:15:16;14.10;99.90
20759;DHT22;10539;53.686;9.158;2023-03-23T10:23:23;14.20;99.90
20759;DHT22;10539;53.686;9.158;2023-03-23T10:26:21;14.20;99.90
20759;DHT22;10539;53.686;9.158;2023-03-23T10:29:11;14.30;99.90
20759;DHT22;10539;53.686;9.158;2023-03-23T10:31:43;14.40;99.90
20759;DHT22;10539;53.686;9.158;2023-03-23T10:34:39;14.50;99.90
20759;DHT22;10539;53.686;9.158;2023-03-23T10:37:11;14.50;99.90
20759;DHT22;10539;53.686;9.158;2023-03-23T10:42:10;14.90;99.90
20759;DHT22;10539;53.686;9.158;2023-03-23T10:44:36;15.20;99.90
20759;DHT22;10539;53.686;9.158;2023-03-23T10:47:07;15.50;99.90
20759;DHT22;10539;53.686;9.158;2023-03-23T10:54:39;15.30;99.90
20759;DHT22;10539;53.686;9.158;2023-03-23T10:57:20;15.20;99.90
20759;DHT22;10539;53.686;9.158;2023-03-23T10:59:47;15.10;99.90
20759;DHT22;10539;53.686;9.158;2023-03-23T11:02:20;15.00;99.90
20759;DHT22;10539;53.686;9.158;2023-03-23T11:05:03;14.90;99.90
20759;DHT22;10539;53.686;9.158;2023-03-23T11:07:32;14.90;99.90
20759;DHT22;10539;53.686;9.158;2023-03-23T11:10:25;14.90;99.90
20759;DHT22;10539;53.686;9.158;2023-03-23T11:12:51;15.00;99.90
20759;DHT22;10539;53.686;9.158;2023-03-23T11:15:32;15.10;99.90
20759;DHT22;10539;53.686;9.158;2023-03-23T11:18:01;15.20;99.90
20759;DHT22;10539;53.686;9.158;2023-03-23T11:20:28;15.20;99.90
20759;DHT22;10539;53.686;9.158;2023-03-23T11:22:55;15.10;99.90
20759;DHT22;10539;53.686;9.158;2023-03-23T11:25:21;15.10;99.90
20759;DHT22;10539;53.686;9.158;2023-03-23T11:27:49;15.10;99.90
20759;DHT22;10539;53.686;9.158;2023-03-23T11:30:34;15.20;99.90
20759;DHT22;10539;53.686;9.158;2023-03-23T11:33:01;15.30;99.90
20759;DHT22;10539;53.686;9.158;2023-03-23T11:35:28;15.50;99.90
20759;DHT22;10539;53.686;9.158;2023-03-23T11:37:56;15.70;99.90
20759;DHT22;10539;53.686;9.158;2023-03-23T11:40:25;15.60;99.90
20759;DHT22;10539;53.686;9.158;2023-03-23T11:43:07;15.50;99.90
20759;DHT22;10539;53.686;9.158;2023-03-23T11:45:40;15.40;99.90
20759;DHT22;10539;53.686;9.158;2023-03-23T11:51:05;15.10;99.90
20759;DHT22;10539;53.686;9.158;2023-03-23T11:56:43;14.90;99.90
20759;DHT22;10539;53.686;9.158;2023-03-23T11:59:27;14.90;99.90
20759;DHT22;10539;53.686;9.158;2023-03-23T12:02:24;15.00;99.90
20759;DHT22;10539;53.686;9.158;2023-03-23T12:07:46;15.10;99.90
20759;DHT22;10539;53.686;9.158;2023-03-23T12:11:10;15.10;99.90
20759;DHT22;10539;53.686;9.158;2023-03-23T12:13:33;15.00;99.90
20759;DHT22;10539;53.686;9.158;2023-03-23T12:24:45;15.30;99.90
20759;DHT22;10539;53.686;9.158;2023-03-23T12:27:35;15.30;99.90
20759;DHT22;10539;53.686;9.158;2023-03-23T12:33:01;15.50;99.90
20759;DHT22;10539;53.686;9.158;2023-03-23T12:43:51;15.50;99.90
20759;DHT22;10539;53.686;9.158;2023-03-23T12:49:20;15.70;99.90
20759;DHT22;10539;53.686;9.158;2023-03-23T12:57:38;16.10;99.90
20759;DHT22;10539;53.686;9.158;2023-03-23T13:05:57;16.00;99.90
20759;DHT22;10539;53.686;9.158;2023-03-23T13:08:33;15.90;99.90
20759;DHT22;10539;53.686;9.158;2023-03-23T13:11:04;15.80;99.90
20759;DHT22;10539;53.686;9.158;2023-03-23T13:19:08;15.70;99.90
20759;DHT22;10539;53.686;9.158;2023-03-23T13:21:53;15.80;99.90
20759;DHT22;10539;53.686;9.158;2023-03-23T13:24:26;15.90;99.90
20759;DHT22;10539;53.686;9.158;2023-03-23T13:26:53;15.90;99.90
20759;DHT22;10539;53.686;9.158;2023-03-23T13:29:24;15.80;99.90
20759;DHT22;10539;53.686;9.158;2023-03-23T13:32:10;15.70;99.90
20759;DHT22;10539;53.686;9.158;2023-03-23T13:34:36;15.70;99.90
20759;DHT22;10539;53.686;9.158;2023-03-23T13:37:11;15.70;99.90
20759;DHT22;10539;53.686;9.158;2023-03-23T13:47:26;15.40;99.90
20759;DHT22;10539;53.686;9.158;2023-03-23T13:49:55;15.40;99.90
20759;DHT22;10539;53.686;9.158;2023-03-23T14:03:18;15.20;99.90
20759;DHT22;10539;53.686;9.158;2023-03-23T14:05:49;15.30;99.90
20759;DHT22;10539;53.686;9.158;2023-03-23T14:11:19;15.20;99.90
20759;DHT22;10539;53.686;9.158;2023-03-23T14:14:14;15.20;99.90
20759;DHT22;10539;53.686;9.158;2023-03-23T14:16:44;15.20;99.90
20759;DHT22;10539;53.686;9.158;2023-03-23T14:19:24;15.30;99.90
20759;DHT22;10539;53.686;9.158;2023-03-23T14:22:02;15.40;99.90
20759;DHT22;10539;53.686;9.158;2023-03-23T14:24:31;15.50;99.90
20759;DHT22;10539;53.686;9.158;2023-03-23T14:27:14;15.60;99.90
20759;DHT22;10539;53.686;9.158;2023-03-23T14:29:41;15.60;99.90
20759;DHT22;10539;53.686;9.158;2023-03-23T14:32:10;15.50;99.90
20759;DHT22;10539;53.686;9.158;2023-03-23T14:34:37;15.50;99.90
20759;DHT22;10539;53.686;9.158;2023-03-23T14:37:03;15.70;99.90
20759;DHT22;10539;53.686;9.158;2023-03-23T14:39:31;15.70;99.90
20759;DHT22;10539;53.686;9.158;2023-03-23T14:42:06;15.80;99.90
20759;DHT22;10539;53.686;9.158;2023-03-23T14:44:37;15.80;99.90
20759;DHT22;10539;53.686;9.158;2023-03-23T14:47:15;15.80;99.90
20759;DHT22;10539;53.686;9.158;2023-03-23T14:49:43;15.90;99.90
20759;DHT22;10539;53.686;9.158;2023-03-23T14:52:17;16.00;99.90
20759;DHT22;10539;53.686;9.158;2023-03-23T14:54:44;16.00;99.90
20759;DHT22;10539;53.686;9.158;2023-03-23T14:59:43;15.90;99.90
20759;DHT22;10539;53.686;9.158;2023-03-23T15:02:13;16.00;99.90
20759;DHT22;10539;53.686;9.158;2023-03-23T15:04:40;16.00;99.90
20759;DHT22;10539;53.686;9.158;2023-03-23T15:07:09;16.00;99.90
20759;DHT22;10539;53.686;9.158;2023-03-23T15:09:39;16.00;99.90
20759;DHT22;10539;53.686;9.158;2023-03-23T15:12:06;16.00;99.90
20759;DHT22;10539;53.686;9.158;2023-03-23T15:14:41;16.00;99.90
20759;DHT22;10539;53.686;9.158;2023-03-23T15:17:28;15.90;99.90
20759;DHT22;10539;53.686;9.158;2023-03-23T15:19:55;16.00;99.90
20759;DHT22;10539;53.686;9.158;2023-03-23T15:25:08;16.10;99.90
20759;DHT22;10539;53.686;9.158;2023-03-23T15:27:40;16.10;99.90
20759;DHT22;10539;53.686;9.158;2023-03-23T15:32:44;16.00;99.90
20759;DHT22;10539;53.686;9.158;2023-03-23T15:35:16;15.90;99.90
20759;DHT22;10539;53.686;9.158;2023-03-23T15:37:57;15.90;99.90
20759;DHT22;10539;53.686;9.158;2023-03-23T15:40:24;15.90;99.90
20759;DHT22;10539;53.686;9.158;2023-03-23T15:43:14;15.80;99.90
20759;DHT22;10539;53.686;9.158;2023-03-23T15:45:52;15.80;99.90
20759;DHT22;10539;53.686;9.158;2023-03-23T15:48:18;15.80;99.90
20759;DHT22;10539;53.686;9.158;2023-03-23T15:50:46;15.70;99.90
20759;DHT22;10539;53.686;9.158;2023-03-23T15:53:33;15.80;99.90
20759;DHT22;10539;53.686;9.158;2023-03-23T15:56:01;15.80;99.90
20759;DHT22;10539;53.686;9.158;2023-03-23T15:58:28;15.80;99.90
20759;DHT22;10539;53.686;9.158;2023-03-23T16:00:54;15.70;99.90
20759;DHT22;10539;53.686;9.158;2023-03-23T16:03:26;15.70;99.90
20759;DHT22;10539;53.686;9.158;2023-03-23T16:05:53;15.70;99.90
20759;DHT22;10539;53.686;9.158;2023-03-23T16:08:20;15.60;99.90
20759;DHT22;10539;53.686;9.158;2023-03-23T16:10:46;15.60;99.90
20759;DHT22;10539;53.686;9.158;2023-03-23T16:13:11;15.70;99.90
20759;DHT22;10539;53.686;9.158;2023-03-23T16:15:37;15.60;99.90
20759;DHT22;10539;53.686;9.158;2023-03-23T16:18:03;15.60;99.90
20759;DHT22;10539;53.686;9.158;2023-03-23T16:20:29;15.50;99.90
20759;DHT22;10539;53.686;9.158;2023-03-23T16:22:58;15.50;99.90
20759;DHT22;10539;53.686;9.158;2023-03-23T16:25:24;15.50;99.90
20759;DHT22;10539;53.686;9.158;2023-03-23T16:27:50;15.50;99.90
20759;DHT22;10539;53.686;9.158;2023-03-23T16:30:27;15.50;99.90
20759;DHT22;10539;53.686;9.158;2023-03-23T16:32:53;15.50;99.90
20759;DHT22;10539;53.686;9.158;2023-03-23T16:35:20;15.50;99.90
20759;DHT22;10539;53.686;9.158;2023-03-23T16:37:47;15.50;99.90
20759;DHT22;10539;53.686;9.158;2023-03-23T16:40:15;15.50;99.90
20759;DHT22;10539;53.686;9.158;2023-03-23T16:42:41;15.60;99.90
20759;DHT22;10539;53.686;9.158;2023-03-23T16:45:08;15.60;99.90
20759;DHT22;10539;53.686;9.158;2023-03-23T16:47:34;15.60;99.90
20759;DHT22;10539;53.686;9.158;2023-03-23T16:50:00;15.60;99.90
20759;DHT22;10539;53.686;9.158;2023-03-23T16:52:27;15.60;99.90
20759;DHT22;10539;53.686;9.158;2023-03-23T16:54:53;15.60;99.90
20759;DHT22;10539;53.686;9.158;2023-03-23T16:57:19;15.60;99.90
20759;DHT22;10539;53.686;9.158;2023-03-23T16:59:45;15.60;99.90
20759;DHT22;10539;53.686;9.158;2023-03-23T17:02:11;15.50;99.90
20759;DHT22;10539;53.686;9.158;2023-03-23T17:04:42;15.40;99.90
20759;DHT22;10539;53.686;9.158;2023-03-23T17:07:08;15.40;99.90
20759;DHT22;10539;53.686;9.158;2023-03-23T17:09:34;15.30;99.90
20759;DHT22;10539;53.686;9.158;2023-03-23T17:12:00;15.30;99.90
20759;DHT22;10539;53.686;9.158;2023-03-23T17:14:26;15.20;99.90
20759;DHT22;10539;53.686;9.158;2023-03-23T17:16:52;15.10;99.90
20759;DHT22;10539;53.686;9.158;2023-03-23T17:19:18;15.10;99.90
20759;DHT22;10539;53.686;9.158;2023-03-23T17:21:44;15.00;99.90
20759;DHT22;10539;53.686;9.158;2023-03-23T17:24:09;14.90;99.90
20759;DHT22;10539;53.686;9.158;2023-03-23T17:26:35;14.80;99.90
20759;DHT22;10539;53.686;9.158;2023-03-23T17:29:02;14.80;99.90
20759;DHT22;10539;53.686;9.158;2023-03-23T17:31:28;14.70;99.90
20759;DHT22;10539;53.686;9.158;2023-03-23T17:33:54;14.60;99.90
20759;DHT22;10539;53.686;9.158;2023-03-23T17:36:22;14.60;99.90